sensor_id;sensor_type;location;lat;lon;timestamp;P1;durP1;ratioP1;P2;durP2;ratioP2
14001;SDS011;7076;51.280;12.584;2022-08-02T00:00:58;0.98;;;0.80;;
14001;SDS011;7076;51.280;12.584;2022-08-02T00:06:00;2.15;;;0.82;;
14001;SDS011;7076;51.280;12.584;2022-08-02T00:11:03;1.80;;;0.90;;
14001;SDS011;7076;51.280;12.584;2022-08-02T00:16:07;1.05;;;0.82;;
14001;SDS011;7076;51.280;12.584;2022-08-02T00:21:17;1.10;;;0.70;;
14001;SDS011;7076;51.280;12.584;2022-08-02T00:26:19;1.48;;;0.80;;
14001;SDS011;7076;51.280;12.584;2022-08-02T00:31:24;1.25;;;0.80;;
14001;SDS011;7076;51.280;12.584;2022-08-02T00:36:26;3.30;;;0.80;;
14001;SDS011;7076;51.280;12.584;2022-08-02T00:41:29;0.80;;;0.80;;
14001;SDS011;7076;51.280;12.584;2022-08-02T00:46:33;1.02;;;0.98;;
14001;SDS011;7076;51.280;12.584;2022-08-02T00:51:36;1.10;;;1.00;;
14001;SDS011;7076;51.280;12.584;2022-08-02T00:56:39;1.85;;;0.90;;
14001;SDS011;7076;51.280;12.584;2022-08-02T01:01:51;2.78;;;0.90;;
14001;SDS011;7076;51.280;12.584;2022-08-02T01:06:58;1.05;;;0.68;;
14001;SDS011;7076;51.280;12.584;2022-08-02T01:12:01;0.80;;;0.80;;
14001;SDS011;7076;51.280;12.584;2022-08-02T01:17:07;0.82;;;0.82;;
14001;SDS011;7076;51.280;12.584;2022-08-02T01:28:08;1.70;;;1.00;;
14001;SDS011;7076;51.280;12.584;2022-08-02T01:33:22;1.10;;;1.00;;
14001;SDS011;7076;51.280;12.584;2022-08-02T01:38:28;1.67;;;1.08;;
14001;SDS011;7076;51.280;12.584;2022-08-02T01:43:35;1.77;;;1.00;;
14001;SDS011;7076;51.280;12.584;2022-08-02T01:48:40;2.00;;;1.00;;
14001;SDS011;7076;51.280;12.584;2022-08-02T01:53:44;2.38;;;1.20;;
14001;SDS011;7076;51.280;12.584;2022-08-02T01:58:50;2.05;;;1.20;;
14001;SDS011;7076;51.280;12.584;2022-08-02T02:03:53;3.72;;;1.23;;
14001;SDS011;7076;51.280;12.584;2022-08-02T02:08:56;1.73;;;0.98;;
14001;SDS011;7076;51.280;12.584;2022-08-02T02:14:02;1.95;;;1.10;;
14001;SDS011;7076;51.280;12.584;2022-08-02T02:19:06;1.20;;;1.10;;
14001;SDS011;7076;51.280;12.584;2022-08-02T02:24:09;3.03;;;1.25;;
14001;SDS011;7076;51.280;12.584;2022-08-02T02:29:13;1.80;;;1.13;;
14001;SDS011;7076;51.280;12.584;2022-08-02T02:34:21;2.50;;;1.15;;
14001;SDS011;7076;51.280;12.584;2022-08-02T02:39:27;1.85;;;1.20;;
14001;SDS011;7076;51.280;12.584;2022-08-02T02:44:31;3.83;;;1.15;;
14001;SDS011;7076;51.280;12.584;2022-08-02T02:49:35;1.52;;;1.23;;
14001;SDS011;7076;51.280;12.584;2022-08-02T02:54:38;3.28;;;1.20;;
14001;SDS011;7076;51.280;12.584;2022-08-02T02:59:43;1.30;;;1.05;;
14001;SDS011;7076;51.280;12.584;2022-08-02T03:04:49;1.38;;;1.20;;
14001;SDS011;7076;51.280;12.584;2022-08-02T03:09:58;1.33;;;1.17;;
14001;SDS011;7076;51.280;12.584;2022-08-02T03:15:02;1.13;;;1.02;;
14001;SDS011;7076;51.280;12.584;2022-08-02T03:20:10;1.30;;;1.20;;
14001;SDS011;7076;51.280;12.584;2022-08-02T03:25:15;3.20;;;1.30;;
14001;SDS011;7076;51.280;12.584;2022-08-02T03:30:19;3.60;;;1.30;;
14001;SDS011;7076;51.280;12.584;2022-08-02T03:35:25;2.38;;;1.30;;
14001;SDS011;7076;51.280;12.584;2022-08-02T03:40:28;1.58;;;1.13;;
14001;SDS011;7076;51.280;12.584;2022-08-02T03:45:33;2.47;;;1.20;;
14001;SDS011;7076;51.280;12.584;2022-08-02T03:50:36;2.42;;;1.15;;
14001;SDS011;7076;51.280;12.584;2022-08-02T03:55:39;1.33;;;1.20;;
14001;SDS011;7076;51.280;12.584;2022-08-02T04:00:43;2.45;;;1.20;;
14001;SDS011;7076;51.280;12.584;2022-08-02T04:05:46;2.22;;;1.10;;
14001;SDS011;7076;51.280;12.584;2022-08-02T04:11:04;2.67;;;1.40;;
14001;SDS011;7076;51.280;12.584;2022-08-02T04:16:28;2.30;;;1.20;;
14001;SDS011;7076;51.280;12.584;2022-08-02T04:21:36;1.95;;;1.50;;
14001;SDS011;7076;51.280;12.584;2022-08-02T04:26:52;3.33;;;1.63;;
14001;SDS011;7076;51.280;12.584;2022-08-02T04:32:03;4.07;;;1.15;;
14001;SDS011;7076;51.280;12.584;2022-08-02T04:37:06;4.80;;;1.40;;
14001;SDS011;7076;51.280;12.584;2022-08-02T04:42:09;2.75;;;1.52;;
14001;SDS011;7076;51.280;12.584;2022-08-02T04:47:13;1.38;;;1.17;;
14001;SDS011;7076;51.280;12.584;2022-08-02T04:52:16;1.98;;;1.63;;
14001;SDS011;7076;51.280;12.584;2022-08-02T04:57:19;1.33;;;1.23;;
14001;SDS011;7076;51.280;12.584;2022-08-02T05:02:54;2.22;;;1.70;;
14001;SDS011;7076;51.280;12.584;2022-08-02T05:07:57;2.58;;;1.50;;
14001;SDS011;7076;51.280;12.584;2022-08-02T05:13:02;3.30;;;1.38;;
14001;SDS011;7076;51.280;12.584;2022-08-02T05:18:07;4.82;;;1.60;;
14001;SDS011;7076;51.280;12.584;2022-08-02T05:23:10;2.97;;;1.55;;
14001;SDS011;7076;51.280;12.584;2022-08-02T05:28:13;1.73;;;1.50;;
14001;SDS011;7076;51.280;12.584;2022-08-02T05:33:17;1.25;;;1.15;;
14001;SDS011;7076;51.280;12.584;2022-08-02T05:38:19;3.85;;;1.70;;
14001;SDS011;7076;51.280;12.584;2022-08-02T05:43:26;3.20;;;1.48;;
14001;SDS011;7076;51.280;12.584;2022-08-02T05:48:30;2.47;;;1.42;;
14001;SDS011;7076;51.280;12.584;2022-08-02T05:53:35;4.57;;;1.75;;
14001;SDS011;7076;51.280;12.584;2022-08-02T05:58:42;2.58;;;1.30;;
14001;SDS011;7076;51.280;12.584;2022-08-02T06:03:55;2.90;;;1.50;;
14001;SDS011;7076;51.280;12.584;2022-08-02T06:08:59;2.63;;;1.10;;
14001;SDS011;7076;51.280;12.584;2022-08-02T06:14:04;8.15;;;1.83;;
14001;SDS011;7076;51.280;12.584;2022-08-02T06:19:10;2.83;;;1.10;;
14001;SDS011;7076;51.280;12.584;2022-08-02T06:24:13;4.60;;;1.23;;
14001;SDS011;7076;51.280;12.584;2022-08-02T06:29:19;1.92;;;1.20;;
14001;SDS011;7076;51.280;12.584;2022-08-02T06:34:25;3.13;;;1.30;;
14001;SDS011;7076;51.280;12.584;2022-08-02T06:39:30;2.55;;;1.25;;
14001;SDS011;7076;51.280;12.584;2022-08-02T06:44:33;1.98;;;0.90;;
14001;SDS011;7076;51.280;12.584;2022-08-02T06:49:52;3.25;;;1.48;;
14001;SDS011;7076;51.280;12.584;2022-08-02T06:54:57;2.53;;;1.10;;
14001;SDS011;7076;51.280;12.584;2022-08-02T07:00:01;4.40;;;1.73;;
14001;SDS011;7076;51.280;12.584;2022-08-02T07:05:08;4.53;;;1.15;;
14001;SDS011;7076;51.280;12.584;2022-08-02T07:10:11;3.22;;;1.10;;
14001;SDS011;7076;51.280;12.584;2022-08-02T07:15:15;2.22;;;1.10;;
14001;SDS011;7076;51.280;12.584;2022-08-02T07:20:19;3.90;;;1.27;;
14001;SDS011;7076;51.280;12.584;2022-08-02T07:25:22;2.08;;;1.23;;
14001;SDS011;7076;51.280;12.584;2022-08-02T07:30:25;3.03;;;1.20;;
14001;SDS011;7076;51.280;12.584;2022-08-02T07:35:29;1.50;;;1.10;;
14001;SDS011;7076;51.280;12.584;2022-08-02T07:40:35;3.42;;;0.98;;
14001;SDS011;7076;51.280;12.584;2022-08-02T07:45:40;2.58;;;1.00;;
14001;SDS011;7076;51.280;12.584;2022-08-02T07:51:02;3.80;;;1.30;;
14001;SDS011;7076;51.280;12.584;2022-08-02T07:56:05;3.28;;;1.52;;
14001;SDS011;7076;51.280;12.584;2022-08-02T08:01:08;3.70;;;1.20;;
14001;SDS011;7076;51.280;12.584;2022-08-02T08:06:12;1.92;;;1.10;;
14001;SDS011;7076;51.280;12.584;2022-08-02T08:11:16;2.53;;;1.30;;
14001;SDS011;7076;51.280;12.584;2022-08-02T08:16:19;3.30;;;1.10;;
14001;SDS011;7076;51.280;12.584;2022-08-02T08:21:23;2.63;;;1.15;;
14001;SDS011;7076;51.280;12.584;2022-08-02T08:26:26;2.42;;;1.50;;
14001;SDS011;7076;51.280;12.584;2022-08-02T08:31:29;2.38;;;1.40;;
14001;SDS011;7076;51.280;12.584;2022-08-02T08:36:33;4.07;;;1.13;;
14001;SDS011;7076;51.280;12.584;2022-08-02T08:41:36;2.65;;;1.30;;
14001;SDS011;7076;51.280;12.584;2022-08-02T08:46:39;4.07;;;1.25;;
14001;SDS011;7076;51.280;12.584;2022-08-02T08:51:45;5.63;;;1.48;;
14001;SDS011;7076;51.280;12.584;2022-08-02T08:56:48;4.90;;;1.55;;
14001;SDS011;7076;51.280;12.584;2022-08-02T09:01:53;3.55;;;1.15;;
14001;SDS011;7076;51.280;12.584;2022-08-02T09:06:57;3.05;;;1.33;;
14001;SDS011;7076;51.280;12.584;2022-08-02T09:12:11;4.10;;;1.50;;
14001;SDS011;7076;51.280;12.584;2022-08-02T09:17:16;2.20;;;1.50;;
14001;SDS011;7076;51.280;12.584;2022-08-02T09:22:23;2.83;;;1.40;;
14001;SDS011;7076;51.280;12.584;2022-08-02T09:27:26;2.40;;;1.77;;
14001;SDS011;7076;51.280;12.584;2022-08-02T09:32:29;2.80;;;1.48;;
14001;SDS011;7076;51.280;12.584;2022-08-02T09:37:36;2.25;;;1.73;;
14001;SDS011;7076;51.280;12.584;2022-08-02T09:42:57;3.13;;;1.50;;
14001;SDS011;7076;51.280;12.584;2022-08-02T09:48:00;2.97;;;1.70;;
14001;SDS011;7076;51.280;12.584;2022-08-02T09:53:04;2.05;;;1.35;;
14001;SDS011;7076;51.280;12.584;2022-08-02T09:58:18;4.55;;;1.70;;
14001;SDS011;7076;51.280;12.584;2022-08-02T10:03:21;1.60;;;1.50;;
14001;SDS011;7076;51.280;12.584;2022-08-02T10:08:35;1.52;;;1.30;;
14001;SDS011;7076;51.280;12.584;2022-08-02T10:13:39;1.52;;;1.40;;
14001;SDS011;7076;51.280;12.584;2022-08-02T10:18:42;3.70;;;1.90;;
14001;SDS011;7076;51.280;12.584;2022-08-02T10:23:45;2.35;;;1.33;;
14001;SDS011;7076;51.280;12.584;2022-08-02T10:28:51;1.60;;;1.27;;
14001;SDS011;7076;51.280;12.584;2022-08-02T10:33:55;3.50;;;1.40;;
14001;SDS011;7076;51.280;12.584;2022-08-02T10:39:00;2.47;;;1.60;;
14001;SDS011;7076;51.280;12.584;2022-08-02T10:44:05;2.17;;;1.20;;
14001;SDS011;7076;51.280;12.584;2022-08-02T10:49:24;1.45;;;1.17;;
14001;SDS011;7076;51.280;12.584;2022-08-02T10:54:47;1.83;;;1.45;;
14001;SDS011;7076;51.280;12.584;2022-08-02T11:00:00;1.65;;;1.33;;
14001;SDS011;7076;51.280;12.584;2022-08-02T11:05:05;2.30;;;1.73;;
14001;SDS011;7076;51.280;12.584;2022-08-02T11:10:27;1.95;;;1.50;;
14001;SDS011;7076;51.280;12.584;2022-08-02T11:15:48;2.78;;;1.60;;
14001;SDS011;7076;51.280;12.584;2022-08-02T11:31:58;3.30;;;1.52;;
14001;SDS011;7076;51.280;12.584;2022-08-02T11:37:01;1.58;;;1.17;;
14001;SDS011;7076;51.280;12.584;2022-08-02T11:42:03;1.70;;;1.02;;
14001;SDS011;7076;51.280;12.584;2022-08-02T11:47:08;3.70;;;1.60;;
14001;SDS011;7076;51.280;12.584;2022-08-02T11:52:11;3.15;;;1.10;;
14001;SDS011;7076;51.280;12.584;2022-08-02T11:57:15;2.50;;;1.30;;
14001;SDS011;7076;51.280;12.584;2022-08-02T12:02:22;2.25;;;1.20;;
14001;SDS011;7076;51.280;12.584;2022-08-02T12:07:29;2.85;;;1.65;;
14001;SDS011;7076;51.280;12.584;2022-08-02T12:12:45;4.90;;;1.40;;
14001;SDS011;7076;51.280;12.584;2022-08-02T12:17:51;1.30;;;1.00;;
14001;SDS011;7076;51.280;12.584;2022-08-02T12:23:11;2.13;;;1.27;;
14001;SDS011;7076;51.280;12.584;2022-08-02T12:28:15;2.80;;;1.38;;
14001;SDS011;7076;51.280;12.584;2022-08-02T12:33:20;2.50;;;1.20;;
14001;SDS011;7076;51.280;12.584;2022-08-02T12:38:24;1.52;;;1.10;;
14001;SDS011;7076;51.280;12.584;2022-08-02T12:43:26;2.70;;;0.93;;
14001;SDS011;7076;51.280;12.584;2022-08-02T12:48:32;3.65;;;0.95;;
14001;SDS011;7076;51.280;12.584;2022-08-02T12:53:40;2.15;;;1.20;;
14001;SDS011;7076;51.280;12.584;2022-08-02T12:58:47;0.98;;;0.70;;
14001;SDS011;7076;51.280;12.584;2022-08-02T13:03:52;2.70;;;0.90;;
14001;SDS011;7076;51.280;12.584;2022-08-02T13:09:14;2.38;;;1.17;;
14001;SDS011;7076;51.280;12.584;2022-08-02T13:14:18;1.42;;;0.70;;
14001;SDS011;7076;51.280;12.584;2022-08-02T13:19:22;1.35;;;0.90;;
14001;SDS011;7076;51.280;12.584;2022-08-02T13:24:25;3.13;;;1.45;;
14001;SDS011;7076;51.280;12.584;2022-08-02T13:29:48;1.38;;;0.82;;
14001;SDS011;7076;51.280;12.584;2022-08-02T13:34:52;3.72;;;1.20;;
14001;SDS011;7076;51.280;12.584;2022-08-02T13:39:54;2.05;;;1.20;;
14001;SDS011;7076;51.280;12.584;2022-08-02T13:45:17;1.17;;;0.95;;
14001;SDS011;7076;51.280;12.584;2022-08-02T13:50:21;1.38;;;0.90;;
14001;SDS011;7076;51.280;12.584;2022-08-02T13:55:26;1.48;;;1.00;;
14001;SDS011;7076;51.280;12.584;2022-08-02T14:00:29;2.15;;;0.95;;
14001;SDS011;7076;51.280;12.584;2022-08-02T14:05:38;1.80;;;1.00;;
14001;SDS011;7076;51.280;12.584;2022-08-02T14:10:49;2.28;;;0.90;;
14001;SDS011;7076;51.280;12.584;2022-08-02T14:15:52;1.23;;;1.08;;
14001;SDS011;7076;51.280;12.584;2022-08-02T14:20:59;2.90;;;1.00;;
14001;SDS011;7076;51.280;12.584;2022-08-02T14:26:02;2.97;;;0.95;;
14001;SDS011;7076;51.280;12.584;2022-08-02T14:31:27;1.42;;;1.00;;
14001;SDS011;7076;51.280;12.584;2022-08-02T14:36:31;0.82;;;0.80;;
14001;SDS011;7076;51.280;12.584;2022-08-02T14:41:34;1.33;;;0.80;;
14001;SDS011;7076;51.280;12.584;2022-08-02T14:46:57;0.98;;;0.98;;
14001;SDS011;7076;51.280;12.584;2022-08-02T14:52:02;0.95;;;0.80;;
14001;SDS011;7076;51.280;12.584;2022-08-02T14:57:05;1.95;;;1.05;;
14001;SDS011;7076;51.280;12.584;2022-08-02T15:02:08;1.23;;;1.08;;
14001;SDS011;7076;51.280;12.584;2022-08-02T15:07:15;2.10;;;0.95;;
14001;SDS011;7076;51.280;12.584;2022-08-02T15:12:18;3.15;;;1.10;;
14001;SDS011;7076;51.280;12.584;2022-08-02T15:17:21;1.52;;;0.90;;
14001;SDS011;7076;51.280;12.584;2022-08-02T15:22:25;1.33;;;0.98;;
14001;SDS011;7076;51.280;12.584;2022-08-02T15:27:29;3.90;;;0.90;;
14001;SDS011;7076;51.280;12.584;2022-08-02T15:32:31;1.08;;;0.98;;
14001;SDS011;7076;51.280;12.584;2022-08-02T15:37:36;1.73;;;0.80;;
14001;SDS011;7076;51.280;12.584;2022-08-02T15:42:42;1.67;;;1.00;;
14001;SDS011;7076;51.280;12.584;2022-08-02T15:47:45;2.35;;;1.27;;
14001;SDS011;7076;51.280;12.584;2022-08-02T15:52:52;1.15;;;1.00;;
14001;SDS011;7076;51.280;12.584;2022-08-02T15:57:55;0.80;;;0.80;;
14001;SDS011;7076;51.280;12.584;2022-08-02T16:02:58;2.10;;;0.77;;
14001;SDS011;7076;51.280;12.584;2022-08-02T16:08:02;1.65;;;1.15;;
14001;SDS011;7076;51.280;12.584;2022-08-02T16:13:05;2.75;;;1.00;;
14001;SDS011;7076;51.280;12.584;2022-08-02T16:18:26;2.75;;;0.85;;
14001;SDS011;7076;51.280;12.584;2022-08-02T16:23:30;2.17;;;1.10;;
14001;SDS011;7076;51.280;12.584;2022-08-02T16:28:53;1.52;;;0.82;;
14001;SDS011;7076;51.280;12.584;2022-08-02T16:33:56;2.08;;;0.93;;
14001;SDS011;7076;51.280;12.584;2022-08-02T16:39:00;1.20;;;0.88;;
14001;SDS011;7076;51.280;12.584;2022-08-02T16:44:03;0.90;;;0.90;;
14001;SDS011;7076;51.280;12.584;2022-08-02T16:49:06;1.92;;;0.90;;
14001;SDS011;7076;51.280;12.584;2022-08-02T16:54:30;1.15;;;0.93;;
14001;SDS011;7076;51.280;12.584;2022-08-02T16:59:33;2.88;;;1.00;;
14001;SDS011;7076;51.280;12.584;2022-08-02T17:04:43;1.23;;;1.10;;
14001;SDS011;7076;51.280;12.584;2022-08-02T17:09:49;1.48;;;1.27;;
14001;SDS011;7076;51.280;12.584;2022-08-02T17:15:06;1.95;;;1.00;;
14001;SDS011;7076;51.280;12.584;2022-08-02T17:20:30;2.13;;;1.77;;
14001;SDS011;7076;51.280;12.584;2022-08-02T17:25:34;2.40;;;0.85;;
14001;SDS011;7076;51.280;12.584;2022-08-02T17:30:42;2.13;;;1.10;;
14001;SDS011;7076;51.280;12.584;2022-08-02T17:35:45;4.07;;;1.00;;
14001;SDS011;7076;51.280;12.584;2022-08-02T17:40:54;1.77;;;1.00;;
14001;SDS011;7076;51.280;12.584;2022-08-02T17:45:58;0.90;;;0.80;;
14001;SDS011;7076;51.280;12.584;2022-08-02T17:51:03;2.10;;;1.15;;
14001;SDS011;7076;51.280;12.584;2022-08-02T17:56:08;2.03;;;1.10;;
14001;SDS011;7076;51.280;12.584;2022-08-02T18:01:12;2.15;;;1.15;;
14001;SDS011;7076;51.280;12.584;2022-08-02T18:06:24;1.13;;;1.02;;
14001;SDS011;7076;51.280;12.584;2022-08-02T18:11:28;1.63;;;1.00;;
14001;SDS011;7076;51.280;12.584;2022-08-02T18:16:51;2.28;;;1.00;;
14001;SDS011;7076;51.280;12.584;2022-08-02T18:21:54;1.63;;;1.00;;
14001;SDS011;7076;51.280;12.584;2022-08-02T18:26:58;2.17;;;0.90;;
14001;SDS011;7076;51.280;12.584;2022-08-02T18:32:01;2.47;;;1.10;;
14001;SDS011;7076;51.280;12.584;2022-08-02T18:37:04;0.80;;;0.80;;
14001;SDS011;7076;51.280;12.584;2022-08-02T18:42:09;1.45;;;1.10;;
14001;SDS011;7076;51.280;12.584;2022-08-02T18:47:17;1.73;;;1.00;;
14001;SDS011;7076;51.280;12.584;2022-08-02T18:52:22;2.95;;;1.15;;
14001;SDS011;7076;51.280;12.584;2022-08-02T18:57:33;3.80;;;1.60;;
14001;SDS011;7076;51.280;12.584;2022-08-02T19:02:57;2.10;;;1.48;;
14001;SDS011;7076;51.280;12.584;2022-08-02T19:08:02;4.70;;;1.55;;
14001;SDS011;7076;51.280;12.584;2022-08-02T19:13:07;2.08;;;1.40;;
14001;SDS011;7076;51.280;12.584;2022-08-02T19:18:18;2.92;;;1.50;;
14001;SDS011;7076;51.280;12.584;2022-08-02T19:23:30;2.42;;;1.42;;
14001;SDS011;7076;51.280;12.584;2022-08-02T19:28:34;2.78;;;1.67;;
14001;SDS011;7076;51.280;12.584;2022-08-02T19:33:39;1.98;;;1.20;;
14001;SDS011;7076;51.280;12.584;2022-08-02T19:39:02;1.52;;;1.27;;
14001;SDS011;7076;51.280;12.584;2022-08-02T19:44:08;2.15;;;1.42;;
14001;SDS011;7076;51.280;12.584;2022-08-02T19:49:29;2.55;;;1.42;;
14001;SDS011;7076;51.280;12.584;2022-08-02T19:54:41;1.92;;;1.48;;
14001;SDS011;7076;51.280;12.584;2022-08-02T19:59:57;3.08;;;1.70;;
14001;SDS011;7076;51.280;12.584;2022-08-02T20:05:00;2.90;;;1.90;;
14001;SDS011;7076;51.280;12.584;2022-08-02T20:10:16;4.68;;;1.67;;
14001;SDS011;7076;51.280;12.584;2022-08-02T20:15:26;2.20;;;1.55;;
14001;SDS011;7076;51.280;12.584;2022-08-02T20:20:50;2.42;;;1.83;;
14001;SDS011;7076;51.280;12.584;2022-08-02T20:25:53;1.75;;;1.65;;
14001;SDS011;7076;51.280;12.584;2022-08-02T20:30:57;2.38;;;1.88;;
14001;SDS011;7076;51.280;12.584;2022-08-02T20:36:09;1.80;;;1.70;;
14001;SDS011;7076;51.280;12.584;2022-08-02T20:41:13;1.63;;;1.52;;
14001;SDS011;7076;51.280;12.584;2022-08-02T20:46:23;1.80;;;1.42;;
14001;SDS011;7076;51.280;12.584;2022-08-02T20:51:26;2.78;;;1.88;;
14001;SDS011;7076;51.280;12.584;2022-08-02T20:56:34;2.20;;;1.50;;
14001;SDS011;7076;51.280;12.584;2022-08-02T21:01:39;2.33;;;1.67;;
14001;SDS011;7076;51.280;12.584;2022-08-02T21:06:57;2.97;;;1.80;;
14001;SDS011;7076;51.280;12.584;2022-08-02T21:12:00;3.40;;;1.83;;
14001;SDS011;7076;51.280;12.584;2022-08-02T21:17:07;1.90;;;1.70;;
14001;SDS011;7076;51.280;12.584;2022-08-02T21:22:11;3.25;;;1.80;;
14001;SDS011;7076;51.280;12.584;2022-08-02T21:27:15;3.13;;;1.80;;
14001;SDS011;7076;51.280;12.584;2022-08-02T21:32:39;2.90;;;1.90;;
14001;SDS011;7076;51.280;12.584;2022-08-02T21:37:44;2.80;;;1.80;;
14001;SDS011;7076;51.280;12.584;2022-08-02T21:42:47;3.13;;;2.42;;
14001;SDS011;7076;51.280;12.584;2022-08-02T21:47:52;2.45;;;2.08;;
14001;SDS011;7076;51.280;12.584;2022-08-02T21:52:55;3.28;;;2.45;;
14001;SDS011;7076;51.280;12.584;2022-08-02T21:58:01;2.28;;;1.85;;
14001;SDS011;7076;51.280;12.584;2022-08-02T22:03:06;1.77;;;1.67;;
14001;SDS011;7076;51.280;12.584;2022-08-02T22:08:23;3.28;;;2.00;;
14001;SDS011;7076;51.280;12.584;2022-08-02T22:13:26;2.17;;;1.98;;
14001;SDS011;7076;51.280;12.584;2022-08-02T22:18:40;4.13;;;1.98;;
14001;SDS011;7076;51.280;12.584;2022-08-02T22:23:52;3.90;;;2.05;;
14001;SDS011;7076;51.280;12.584;2022-08-02T22:28:55;1.83;;;1.70;;
14001;SDS011;7076;51.280;12.584;2022-08-02T22:34:01;5.63;;;1.92;;
14001;SDS011;7076;51.280;12.584;2022-08-02T22:39:26;3.78;;;1.80;;
14001;SDS011;7076;51.280;12.584;2022-08-02T22:44:29;1.60;;;1.50;;
14001;SDS011;7076;51.280;12.584;2022-08-02T22:49:35;5.03;;;2.10;;
14001;SDS011;7076;51.280;12.584;2022-08-02T22:54:53;2.22;;;1.85;;
14001;SDS011;7076;51.280;12.584;2022-08-02T22:59:57;2.63;;;2.08;;
14001;SDS011;7076;51.280;12.584;2022-08-02T23:05:02;2.50;;;2.03;;
14001;SDS011;7076;51.280;12.584;2022-08-02T23:10:05;2.47;;;1.67;;
14001;SDS011;7076;51.280;12.584;2022-08-02T23:15:09;2.63;;;1.98;;
14001;SDS011;7076;51.280;12.584;2022-08-02T23:20:14;2.45;;;1.90;;
14001;SDS011;7076;51.280;12.584;2022-08-02T23:25:16;2.72;;;1.70;;
14001;SDS011;7076;51.280;12.584;2022-08-02T23:30:19;3.17;;;2.03;;
14001;SDS011;7076;51.280;12.584;2022-08-02T23:35:24;4.82;;;1.85;;
14001;SDS011;7076;51.280;12.584;2022-08-02T23:40:26;2.53;;;1.83;;
14001;SDS011;7076;51.280;12.584;2022-08-02T23:45:41;2.20;;;2.00;;
14001;SDS011;7076;51.280;12.584;2022-08-02T23:50:47;2.50;;;2.30;;
14001;SDS011;7076;51.280;12.584;2022-08-02T23:55:49;2.75;;;1.80;;
